Time;durP1;ratioP1;P1;durP2;ratioP2;P2;SDS_P1;SDS_P2;PMS_P1;PMS_P2;Temp;Humidity;BMP_temperature;BMP_pressure;BME280_temperature;BME280_humidity;BME280_pressure;Samples;Min_cycle;Max_cycle;Signal;HPM_P1;HPM_P2
2024/01/17 00:01:57;;;;;;;;;;;1.30;98.50;;;;;;5082841;28;19928;-75
2024/01/17 00:04:23;;;;;;;;;;;1.00;98.50;;;;;;5085674;28;20018;-75
2024/01/17 00:06:49;;;;;;;;;;;2.80;98.90;;;;;;5086419;28;20014;-75
2024/01/17 00:09:15;;;;;;;;;;;2.60;98.80;;;;;;5070116;28;19973;-75
2024/01/17 00:11:42;;;;;;;;;;;1.80;98.70;;;;;;5101881;28;20042;-75
2024/01/17 00:14:08;;;;;;;;;;;1.30;98.50;;;;;;5085544;28;20843;-75
2024/01/17 00:16:33;;;;;;;;;;;1.00;98.40;;;;;;5086026;28;19930;-75
2024/01/17 00:18:59;;;;;;;;;;;1.90;98.70;;;;;;5086466;28;19928;-74
2024/01/17 00:21:25;;;;;;;;;;;1.20;98.50;;;;;;5102849;27;19928;-75
2024/01/17 00:23:52;;;;;;;;;;;1.00;98.40;;;;;;5103201;28;19957;-74
2024/01/17 00:26:19;;;;;;;;;;;2.00;98.50;;;;;;5085070;28;19924;-75
2024/01/17 00:28:44;;;;;;;;;;;1.20;98.30;;;;;;5086697;28;19927;-75
2024/01/17 00:31:10;;;;;;;;;;;1.60;98.40;;;;;;5053036;28;19931;-76
2024/01/17 00:33:35;;;;;;;;;;;1.30;98.40;;;;;;5083475;28;20076;-75
2024/01/17 00:36:08;;;;;;;;;;;0.90;98.40;;;;;;5085994;28;20061;-75
2024/01/17 00:38:34;;;;;;;;;;;1.30;98.60;;;;;;5097955;28;19931;-75
2024/01/17 00:41:00;;;;;;;;;;;1.00;98.60;;;;;;5080025;28;19988;-74
2024/01/17 00:43:26;;;;;;;;;;;0.90;98.60;;;;;;5101824;28;19939;-76
2024/01/17 00:45:51;;;;;;;;;;;1.40;98.70;;;;;;5084970;28;19928;-75
2024/01/17 00:48:18;;;;;;;;;;;2.10;99.00;;;;;;5081284;28;19924;-75
2024/01/17 00:50:44;;;;;;;;;;;1.30;98.80;;;;;;5102387;28;19928;-75
2024/01/17 00:53:10;;;;;;;;;;;1.10;98.80;;;;;;5102780;28;20047;-76
2024/01/17 00:55:35;;;;;;;;;;;1.30;98.90;;;;;;5082989;28;19924;-75
2024/01/17 00:58:01;;;;;;;;;;;2.30;99.30;;;;;;5084192;28;19928;-75
2024/01/17 01:00:26;;;;;;;;;;;1.00;99.20;;;;;;5084708;28;19935;-75
2024/01/17 01:02:52;;;;;;;;;;;1.10;99.20;;;;;;5068053;28;20426;-75
2024/01/17 01:05:17;;;;;;;;;;;1.80;99.50;;;;;;5083652;28;19924;-75
2024/01/17 01:07:44;;;;;;;;;;;1.10;99.40;;;;;;5084584;28;19954;-74
2024/01/17 01:10:09;;;;;;;;;;;1.10;99.40;;;;;;5081495;28;19976;-75
2024/01/17 01:12:35;;;;;;;;;;;0.70;99.40;;;;;;5055023;28;19935;-75
2024/01/17 01:15:02;;;;;;;;;;;0.70;99.50;;;;;;5085668;28;20100;-75
2024/01/17 01:17:28;;;;;;;;;;;1.10;99.60;;;;;;5105020;28;19935;-75
2024/01/17 01:19:54;;;;;;;;;;;0.80;99.50;;;;;;5088712;28;19928;-75
2024/01/17 01:22:21;;;;;;;;;;;1.70;99.80;;;;;;5103188;28;20030;-75
2024/01/17 01:24:46;;;;;;;;;;;0.80;99.60;;;;;;5067298;28;19924;-74
2024/01/17 01:27:12;;;;;;;;;;;1.10;99.80;;;;;;5084227;28;19947;-74
2024/01/17 01:29:38;;;;;;;;;;;0.80;99.70;;;;;;5086795;28;19924;-74
2024/01/17 01:32:03;;;;;;;;;;;0.90;99.90;;;;;;5104976;28;19931;-75
2024/01/17 01:34:29;;;;;;;;;;;0.90;99.90;;;;;;5067360;28;20390;-74
2024/01/17 01:36:56;;;;;;;;;;;2.30;99.90;;;;;;5083277;28;20012;-73
2024/01/17 01:39:21;;;;;;;;;;;0.60;99.90;;;;;;5087206;28;19976;-75
2024/01/17 01:41:47;;;;;;;;;;;1.00;99.90;;;;;;5086632;28;19997;-75
2024/01/17 01:44:13;;;;;;;;;;;0.90;99.90;;;;;;5085765;28;19928;-74
2024/01/17 01:46:42;;;;;;;;;;;1.10;99.90;;;;;;5084675;28;19928;-74
2024/01/17 01:49:08;;;;;;;;;;;0.70;99.90;;;;;;5101983;28;19932;-75
2024/01/17 01:51:34;;;;;;;;;;;1.00;99.90;;;;;;5103163;28;20386;-75
2024/01/17 01:54:01;;;;;;;;;;;0.80;99.90;;;;;;5086298;28;20006;-75
2024/01/17 01:56:28;;;;;;;;;;;0.70;99.90;;;;;;5101720;28;19931;-74
2024/01/17 01:58:55;;;;;;;;;;;0.70;99.90;;;;;;5083895;28;19987;-74
2024/01/17 02:01:21;;;;;;;;;;;1.80;99.90;;;;;;5085360;28;19935;-75
2024/01/17 02:03:47;;;;;;;;;;;2.00;99.90;;;;;;5051778;28;19931;-74
2024/01/17 02:06:13;;;;;;;;;;;2.60;99.90;;;;;;5063679;28;19932;-75
2024/01/17 02:08:39;;;;;;;;;;;0.80;99.90;;;;;;5083618;28;19932;-75
2024/01/17 02:11:05;;;;;;;;;;;0.70;99.90;;;;;;5069680;28;19928;-74
2024/01/17 02:13:30;;;;;;;;;;;0.70;99.90;;;;;;5066203;28;19928;-73
2024/01/17 02:15:56;;;;;;;;;;;1.30;99.90;;;;;;5081450;28;19930;-74
2024/01/17 02:18:22;;;;;;;;;;;1.10;99.90;;;;;;5104482;28;19974;-75
2024/01/17 02:20:48;;;;;;;;;;;0.70;99.90;;;;;;5102563;28;20351;-75
2024/01/17 02:23:24;;;;;;;;;;;2.60;99.90;;;;;;5085694;28;20301;-75
2024/01/17 02:25:50;;;;;;;;;;;1.10;99.90;;;;;;5088061;28;19932;-75
2024/01/17 02:28:16;;;;;;;;;;;0.80;99.90;;;;;;5090652;28;19928;-74
2024/01/17 02:30:41;;;;;;;;;;;0.70;99.90;;;;;;5087871;28;19932;-75
2024/01/17 02:33:07;;;;;;;;;;;0.80;99.90;;;;;;5088771;28;20629;-75
2024/01/17 02:35:33;;;;;;;;;;;1.20;99.90;;;;;;5089351;28;19923;-75
2024/01/17 02:37:59;;;;;;;;;;;1.10;99.90;;;;;;5070790;28;19930;-75
2024/01/17 02:40:24;;;;;;;;;;;0.90;99.90;;;;;;5088459;28;19924;-75
2024/01/17 02:42:50;;;;;;;;;;;1.20;99.90;;;;;;5070746;28;19945;-75
2024/01/17 02:45:16;;;;;;;;;;;1.40;99.90;;;;;;5089778;28;19932;-74
2024/01/17 02:47:41;;;;;;;;;;;0.80;99.90;;;;;;5107979;28;19932;-75
2024/01/17 02:50:07;;;;;;;;;;;1.10;99.90;;;;;;5089056;28;19983;-75
2024/01/17 02:52:33;;;;;;;;;;;1.10;99.90;;;;;;5088759;28;19932;-75
2024/01/17 02:54:58;;;;;;;;;;;0.80;99.90;;;;;;5076633;28;20055;-75
2024/01/17 02:57:25;;;;;;;;;;;0.90;99.90;;;;;;5108255;28;19927;-75
2024/01/17 02:59:51;;;;;;;;;;;1.20;99.90;;;;;;5071863;28;19938;-75
2024/01/17 03:02:16;;;;;;;;;;;0.80;99.90;;;;;;5105267;28;20022;-75
2024/01/17 03:04:42;;;;;;;;;;;1.10;99.90;;;;;;5086142;28;20042;-75
2024/01/17 03:07:07;;;;;;;;;;;1.10;99.90;;;;;;5088852;28;19935;-75
2024/01/17 03:09:33;;;;;;;;;;;1.40;99.90;;;;;;5089215;28;20374;-75
2024/01/17 03:11:59;;;;;;;;;;;1.10;99.90;;;;;;5069263;28;19973;-75
2024/01/17 03:14:24;;;;;;;;;;;1.00;99.90;;;;;;5084688;28;19939;-75
2024/01/17 03:16:50;;;;;;;;;;;1.00;99.90;;;;;;5086775;28;19924;-75
2024/01/17 03:19:15;;;;;;;;;;;1.10;99.90;;;;;;5072496;28;19971;-75
2024/01/17 03:21:50;;;;;;;;;;;1.00;99.90;;;;;;5070758;28;20295;-75
2024/01/17 03:24:16;;;;;;;;;;;1.00;99.90;;;;;;5071034;28;19923;-75
2024/01/17 03:26:42;;;;;;;;;;;0.80;99.90;;;;;;5067619;28;20298;-75
2024/01/17 03:29:10;;;;;;;;;;;0.80;99.90;;;;;;5105409;28;19928;-75
2024/01/17 03:31:36;;;;;;;;;;;1.00;99.90;;;;;;5069640;28;20637;-75
2024/01/17 03:34:02;;;;;;;;;;;2.30;99.90;;;;;;5085339;28;20384;-75
2024/01/17 03:36:27;;;;;;;;;;;2.60;99.90;;;;;;5086211;28;20292;-75
2024/01/17 03:38:54;;;;;;;;;;;1.00;99.90;;;;;;5084824;28;19970;-75
2024/01/17 03:41:19;;;;;;;;;;;0.80;99.90;;;;;;5105567;28;19931;-75
2024/01/17 03:43:45;;;;;;;;;;;0.80;99.90;;;;;;5087642;28;19932;-75
2024/01/17 03:46:11;;;;;;;;;;;0.90;99.90;;;;;;5086317;28;19932;-75
2024/01/17 03:48:36;;;;;;;;;;;0.90;99.90;;;;;;5088060;28;19924;-75
2024/01/17 03:51:02;;;;;;;;;;;1.40;99.90;;;;;;5104454;28;19957;-75
2024/01/17 03:53:28;;;;;;;;;;;0.80;99.90;;;;;;5084638;28;19931;-75
2024/01/17 03:55:53;;;;;;;;;;;1.10;99.90;;;;;;5066578;28;19928;-76
2024/01/17 03:58:19;;;;;;;;;;;2.70;99.90;;;;;;5086040;28;19959;-75
2024/01/17 04:00:44;;;;;;;;;;;0.80;99.90;;;;;;5058218;28;20400;-75
2024/01/17 04:03:13;;;;;;;;;;;1.10;99.90;;;;;;5086369;28;19932;-75
2024/01/17 04:05:43;;;;;;;;;;;2.10;99.90;;;;;;5097773;28;19935;-75
2024/01/17 04:08:09;;;;;;;;;;;0.90;99.90;;;;;;5097084;28;19928;-75
2024/01/17 04:10:34;;;;;;;;;;;0.90;99.90;;;;;;5081820;28;19954;-75
2024/01/17 04:13:00;;;;;;;;;;;2.20;99.90;;;;;;5084201;28;20461;-75
2024/01/17 04:15:26;;;;;;;;;;;1.20;99.90;;;;;;5082422;28;19980;-76
2024/01/17 04:17:51;;;;;;;;;;;1.20;99.90;;;;;;5084379;28;20271;-75
2024/01/17 04:20:17;;;;;;;;;;;2.30;99.90;;;;;;5086954;28;19924;-75
2024/01/17 04:22:43;;;;;;;;;;;0.90;99.90;;;;;;5084716;28;19935;-76
2024/01/17 04:25:13;;;;;;;;;;;1.00;99.90;;;;;;5083390;28;19932;-75
2024/01/17 04:27:39;;;;;;;;;;;1.00;99.90;;;;;;5097665;27;20096;-75
2024/01/17 04:30:05;;;;;;;;;;;1.00;99.90;;;;;;5100972;28;19928;-74
2024/01/17 04:32:34;;;;;;;;;;;1.10;99.90;;;;;;5085928;28;20307;-75
2024/01/17 04:35:00;;;;;;;;;;;0.80;99.90;;;;;;5083777;28;20695;-75
2024/01/17 04:37:26;;;;;;;;;;;0.90;99.90;;;;;;5098957;28;19920;-75
2024/01/17 04:39:52;;;;;;;;;;;2.10;99.90;;;;;;5066243;28;19998;-76
2024/01/17 04:42:18;;;;;;;;;;;2.60;99.90;;;;;;5081450;28;19927;-75
2024/01/17 04:44:45;;;;;;;;;;;1.00;99.90;;;;;;5068633;28;20009;-75
2024/01/17 04:47:15;;;;;;;;;;;0.60;99.90;;;;;;5083201;28;19990;-75
2024/01/17 04:49:42;;;;;;;;;;;0.90;99.90;;;;;;5101035;28;19928;-75
2024/01/17 04:52:09;;;;;;;;;;;0.80;99.90;;;;;;5081909;28;19927;-75
2024/01/17 04:54:35;;;;;;;;;;;2.40;99.90;;;;;;5082888;28;19928;-75
2024/01/17 04:57:00;;;;;;;;;;;0.70;99.90;;;;;;5068450;28;19939;-75
2024/01/17 04:59:26;;;;;;;;;;;1.40;99.90;;;;;;5102863;28;20424;-75
2024/01/17 05:01:52;;;;;;;;;;;0.50;99.90;;;;;;5100280;28;19931;-75
2024/01/17 05:04:17;;;;;;;;;;;0.80;99.90;;;;;;5084498;28;19928;-75
2024/01/17 05:06:43;;;;;;;;;;;0.50;99.90;;;;;;5067000;28;19932;-75
2024/01/17 05:09:11;;;;;;;;;;;0.60;99.90;;;;;;5083922;28;19924;-76
2024/01/17 05:11:37;;;;;;;;;;;0.60;99.90;;;;;;5082628;28;19932;-76
2024/01/17 05:14:03;;;;;;;;;;;0.50;99.90;;;;;;5102778;28;20030;-76
2024/01/17 05:16:28;;;;;;;;;;;0.50;99.90;;;;;;5102491;28;19931;-75
2024/01/17 05:18:54;;;;;;;;;;;1.30;99.90;;;;;;5067168;28;19924;-76
2024/01/17 05:21:20;;;;;;;;;;;1.20;99.90;;;;;;5101646;28;20421;-75
2024/01/17 05:23:45;;;;;;;;;;;-0.10;99.90;;;;;;5098215;28;19935;-75
2024/01/17 05:26:11;;;;;;;;;;;0.20;99.90;;;;;;5082066;28;20481;-75
2024/01/17 05:28:36;;;;;;;;;;;1.40;99.90;;;;;;5083159;28;20068;-75
2024/01/17 05:31:02;;;;;;;;;;;2.30;99.90;;;;;;5065590;28;19924;-75
2024/01/17 05:33:28;;;;;;;;;;;0.40;99.90;;;;;;5098669;28;20386;-75
2024/01/17 05:35:53;;;;;;;;;;;1.10;99.90;;;;;;5083245;28;19928;-76
2024/01/17 05:38:19;;;;;;;;;;;0.70;99.90;;;;;;5049747;28;20560;-75
2024/01/17 05:40:44;;;;;;;;;;;1.00;99.90;;;;;;5083987;28;19935;-75
2024/01/17 05:43:11;;;;;;;;;;;0.40;99.90;;;;;;5065306;28;19996;-75
2024/01/17 05:45:37;;;;;;;;;;;0.40;99.90;;;;;;5101242;28;19935;-75
2024/01/17 05:48:03;;;;;;;;;;;0.40;99.90;;;;;;5064603;28;21380;-75
2024/01/17 05:50:29;;;;;;;;;;;0.30;99.90;;;;;;5083667;28;19924;-79
2024/01/17 05:52:54;;;;;;;;;;;0.50;99.90;;;;;;5065001;28;20052;-75
2024/01/17 05:55:20;;;;;;;;;;;1.70;99.90;;;;;;5084818;28;20481;-75
2024/01/17 05:57:46;;;;;;;;;;;0.40;99.90;;;;;;5065700;28;20008;-75
2024/01/17 06:00:12;;;;;;;;;;;0.40;99.90;;;;;;5079719;28;19939;-79
2024/01/17 06:02:42;;;;;;;;;;;0.40;99.90;;;;;;5065400;28;19931;-79
2024/01/17 06:05:08;;;;;;;;;;;0.50;99.90;;;;;;5094247;28;19936;-79
2024/01/17 06:07:34;;;;;;;;;;;0.50;99.90;;;;;;5083339;28;19944;-79
2024/01/17 06:10:03;;;;;;;;;;;1.50;99.90;;;;;;5101509;28;19976;-78
2024/01/17 06:12:28;;;;;;;;;;;0.50;99.90;;;;;;5084526;28;20351;-79
2024/01/17 06:14:54;;;;;;;;;;;1.60;99.90;;;;;;5084890;28;19928;-79
2024/01/17 06:17:20;;;;;;;;;;;0.40;99.90;;;;;;5082001;28;20019;-80
2024/01/17 06:19:46;;;;;;;;;;;0.60;99.90;;;;;;5101886;28;20583;-78
2024/01/17 06:22:12;;;;;;;;;;;0.60;99.90;;;;;;5067770;28;19931;-79
2024/01/17 06:24:37;;;;;;;;;;;0.60;99.90;;;;;;5082102;28;19928;-78
2024/01/17 06:27:03;;;;;;;;;;;0.70;99.90;;;;;;5081526;28;20159;-76
2024/01/17 06:29:33;;;;;;;;;;;0.60;99.90;;;;;;5100772;28;19932;-78
2024/01/17 06:31:59;;;;;;;;;;;2.40;99.90;;;;;;5086310;28;19973;-79
2024/01/17 06:34:25;;;;;;;;;;;0.70;99.90;;;;;;5080567;28;19987;-75
2024/01/17 06:36:51;;;;;;;;;;;0.80;99.90;;;;;;5077806;28;20014;-75
2024/01/17 06:39:17;;;;;;;;;;;0.80;99.90;;;;;;5081013;28;19928;-79
2024/01/17 06:41:48;;;;;;;;;;;0.80;99.90;;;;;;5081751;28;20277;-76
2024/01/17 06:44:14;;;;;;;;;;;2.50;99.90;;;;;;5063702;28;20396;-75
2024/01/17 06:46:39;;;;;;;;;;;0.90;99.90;;;;;;5081049;28;19927;-75
2024/01/17 06:49:05;;;;;;;;;;;0.70;99.90;;;;;;5079070;28;19935;-75
2024/01/17 06:51:31;;;;;;;;;;;2.10;99.90;;;;;;5063814;28;20436;-75
2024/01/17 06:53:56;;;;;;;;;;;0.70;99.90;;;;;;5081694;28;19957;-75
2024/01/17 06:56:22;;;;;;;;;;;0.70;99.90;;;;;;5060971;28;20425;-75
2024/01/17 06:58:49;;;;;;;;;;;0.70;99.90;;;;;;5078753;28;20286;-76
2024/01/17 07:01:14;;;;;;;;;;;0.10;99.90;;;;;;5077441;28;20337;-77
2024/01/17 07:03:43;;;;;;;;;;;0.70;99.90;;;;;;5051362;28;19939;-75
2024/01/17 07:06:09;;;;;;;;;;;0.90;99.90;;;;;;5057897;28;19934;-75
2024/01/17 07:08:34;;;;;;;;;;;0.80;99.90;;;;;;5097298;28;19927;-76
2024/01/17 07:11:00;;;;;;;;;;;0.70;99.90;;;;;;5050835;28;19955;-76
2024/01/17 07:13:26;;;;;;;;;;;0.60;99.90;;;;;;5089883;28;19927;-75
2024/01/17 07:15:51;;;;;;;;;;;0.60;99.90;;;;;;5088114;28;20443;-75
2024/01/17 07:18:17;;;;;;;;;;;1.40;99.90;;;;;;5104733;28;19927;-75
2024/01/17 07:20:42;;;;;;;;;;;0.60;99.90;;;;;;5086069;28;19931;-75
2024/01/17 07:23:08;;;;;;;;;;;0.50;99.90;;;;;;5086835;28;19928;-75
2024/01/17 07:25:34;;;;;;;;;;;0.40;99.90;;;;;;5087116;28;19974;-75
2024/01/17 07:28:00;;;;;;;;;;;0.80;99.90;;;;;;5089389;28;19930;-75
2024/01/17 07:30:26;;;;;;;;;;;2.40;99.90;;;;;;5070486;28;19934;-75
2024/01/17 07:32:54;;;;;;;;;;;0.40;99.90;;;;;;5086150;28;20026;-75
2024/01/17 07:35:20;;;;;;;;;;;0.40;99.90;;;;;;5087542;28;20042;-76
2024/01/17 07:37:48;;;;;;;;;;;1.40;99.90;;;;;;5105444;28;20541;-75
2024/01/17 07:40:17;;;;;;;;;;;1.00;99.90;;;;;;5054079;28;20014;-76
2024/01/17 07:42:43;;;;;;;;;;;0.50;99.90;;;;;;5094621;28;20018;-75
2024/01/17 07:45:10;;;;;;;;;;;1.60;99.90;;;;;;5086255;28;19932;-75
2024/01/17 07:47:36;;;;;;;;;;;0.50;99.90;;;;;;5067406;28;19931;-75
2024/01/17 07:50:02;;;;;;;;;;;0.50;99.90;;;;;;5083165;28;19923;-75
2024/01/17 07:52:27;;;;;;;;;;;0.60;99.90;;;;;;5069054;28;20032;-75
2024/01/17 07:54:53;;;;;;;;;;;0.50;99.90;;;;;;5103526;28;20046;-75
2024/01/17 07:57:18;;;;;;;;;;;2.20;99.90;;;;;;5087872;28;19934;-75
2024/01/17 07:59:44;;;;;;;;;;;0.50;99.90;;;;;;5069442;28;20473;-75
2024/01/17 08:02:10;;;;;;;;;;;0.60;99.90;;;;;;5088220;28;19936;-75
2024/01/17 08:04:36;;;;;;;;;;;1.30;99.90;;;;;;5086980;28;19928;-76
2024/01/17 08:07:02;;;;;;;;;;;2.20;99.90;;;;;;5087614;28;20661;-76
2024/01/17 08:09:32;;;;;;;;;;;0.50;99.90;;;;;;5107316;28;19939;-75
2024/01/17 08:11:58;;;;;;;;;;;0.50;99.90;;;;;;5089696;28;19934;-75
2024/01/17 08:14:24;;;;;;;;;;;0.60;99.90;;;;;;5089130;28;19927;-75
2024/01/17 08:16:50;;;;;;;;;;;0.60;99.90;;;;;;5067639;28;19931;-75
2024/01/17 08:19:16;;;;;;;;;;;1.10;99.90;;;;;;5107084;28;19934;-75
2024/01/17 08:21:42;;;;;;;;;;;1.60;99.90;;;;;;5106236;28;19923;-75
2024/01/17 08:24:08;;;;;;;;;;;0.60;99.90;;;;;;5087264;28;20018;-75
2024/01/17 08:26:34;;;;;;;;;;;1.00;99.90;;;;;;5067316;28;19927;-75
2024/01/17 08:29:00;;;;;;;;;;;0.70;99.90;;;;;;5088929;28;19993;-75
2024/01/17 08:31:25;;;;;;;;;;;0.60;99.90;;;;;;5086986;28;19934;-75
2024/01/17 08:33:51;;;;;;;;;;;0.60;99.90;;;;;;5087402;28;19947;-76
2024/01/17 08:36:16;;;;;;;;;;;0.60;99.90;;;;;;5091102;28;19934;-75
2024/01/17 08:38:42;;;;;;;;;;;0.60;99.90;;;;;;5090537;28;19926;-75
2024/01/17 08:41:08;;;;;;;;;;;1.00;99.90;;;;;;5072375;28;20358;-75
2024/01/17 08:43:34;;;;;;;;;;;0.70;99.90;;;;;;5106829;28;20010;-75
2024/01/17 08:46:03;;;;;;;;;;;0.60;99.90;;;;;;5085529;28;19928;-75
2024/01/17 08:48:29;;;;;;;;;;;0.70;99.90;;;;;;5069585;28;19928;-75
2024/01/17 08:50:55;;;;;;;;;;;0.70;99.90;;;;;;5072368;28;20270;-75
2024/01/17 08:53:21;;;;;;;;;;;0.70;99.90;;;;;;5087195;28;19935;-75
2024/01/17 08:55:47;;;;;;;;;;;0.80;99.90;;;;;;5106478;28;19936;-75
2024/01/17 08:58:13;;;;;;;;;;;0.80;99.90;;;;;;5069866;28;19950;-75
2024/01/17 09:00:38;;;;;;;;;;;0.70;99.90;;;;;;5059008;28;19923;-73
2024/01/17 09:03:04;;;;;;;;;;;0.70;99.90;;;;;;5105647;28;19977;-75
2024/01/17 09:05:30;;;;;;;;;;;1.70;99.90;;;;;;5074763;28;20199;-75
2024/01/17 09:07:57;;;;;;;;;;;0.80;99.90;;;;;;5092273;28;19931;-75
2024/01/17 09:10:22;;;;;;;;;;;1.30;99.90;;;;;;5089336;28;19949;-75
2024/01/17 09:12:49;;;;;;;;;;;0.80;99.90;;;;;;5104493;28;19928;-75
2024/01/17 09:15:15;;;;;;;;;;;0.80;99.90;;;;;;5089058;28;19923;-75
2024/01/17 09:17:41;;;;;;;;;;;0.70;99.90;;;;;;5085835;28;20663;-75
2024/01/17 09:20:07;;;;;;;;;;;0.70;99.90;;;;;;5106416;28;20464;-75
2024/01/17 09:22:33;;;;;;;;;;;0.70;99.90;;;;;;5105858;28;19977;-75
2024/01/17 09:25:01;;;;;;;;;;;0.70;99.90;;;;;;5087974;28;19923;-76
2024/01/17 09:27:27;;;;;;;;;;;1.20;99.90;;;;;;5087502;28;19932;-76
2024/01/17 09:29:53;;;;;;;;;;;0.80;99.90;;;;;;5087832;28;19924;-75
2024/01/17 09:32:19;;;;;;;;;;;0.90;99.90;;;;;;5103937;28;19932;-76
2024/01/17 09:34:47;;;;;;;;;;;1.00;99.90;;;;;;5104584;27;19924;-75
2024/01/17 09:37:13;;;;;;;;;;;1.00;99.90;;;;;;5083471;28;20014;-75
2024/01/17 09:39:39;;;;;;;;;;;0.80;99.90;;;;;;5086403;28;19974;-76
2024/01/17 09:42:05;;;;;;;;;;;0.90;99.90;;;;;;5103858;28;20045;-76
2024/01/17 09:44:31;;;;;;;;;;;0.90;99.90;;;;;;5086156;28;19935;-75
2024/01/17 09:46:58;;;;;;;;;;;1.00;99.90;;;;;;5082041;28;19947;-76
2024/01/17 09:49:24;;;;;;;;;;;0.90;99.90;;;;;;5083594;28;19971;-76
2024/01/17 09:51:50;;;;;;;;;;;2.00;99.90;;;;;;5085899;28;20413;-75
2024/01/17 09:54:17;;;;;;;;;;;1.00;99.90;;;;;;5070245;28;20046;-75
2024/01/17 09:56:45;;;;;;;;;;;1.80;99.90;;;;;;5067427;28;19928;-76
2024/01/17 09:59:14;;;;;;;;;;;1.40;99.90;;;;;;5100692;28;19932;-74
2024/01/17 10:01:40;;;;;;;;;;;1.10;99.90;;;;;;5084434;28;19927;-75
2024/01/17 10:04:07;;;;;;;;;;;1.10;99.90;;;;;;5103665;28;20049;-75
2024/01/17 10:06:34;;;;;;;;;;;1.70;99.90;;;;;;5102159;28;19927;-75
2024/01/17 10:08:59;;;;;;;;;;;1.20;99.90;;;;;;5084490;28;19927;-75
2024/01/17 10:11:25;;;;;;;;;;;1.20;99.90;;;;;;5083610;28;19930;-75
2024/01/17 10:13:51;;;;;;;;;;;1.30;99.90;;;;;;5068051;28;19932;-75
2024/01/17 10:16:16;;;;;;;;;;;1.40;99.90;;;;;;5104037;28;19928;-76
2024/01/17 10:18:42;;;;;;;;;;;1.40;99.90;;;;;;5101019;28;20842;-76
2024/01/17 10:21:08;;;;;;;;;;;1.40;99.90;;;;;;5087317;28;20038;-76
2024/01/17 10:23:40;;;;;;;;;;;1.90;99.90;;;;;;5082746;28;20054;-78
2024/01/17 10:26:08;;;;;;;;;;;1.50;99.90;;;;;;5078083;28;19935;-77
2024/01/17 10:28:33;;;;;;;;;;;1.40;99.90;;;;;;5082087;28;19932;-78
2024/01/17 10:31:01;;;;;;;;;;;1.40;99.90;;;;;;5082444;28;20087;-78
2024/01/17 10:33:27;;;;;;;;;;;1.90;99.90;;;;;;5082066;28;19980;-77
2024/01/17 10:35:53;;;;;;;;;;;2.60;99.90;;;;;;5083464;28;20408;-78
2024/01/17 10:38:19;;;;;;;;;;;1.20;99.90;;;;;;5083403;28;20438;-76
2024/01/17 10:40:44;;;;;;;;;;;1.30;99.90;;;;;;5078578;28;21375;-77
2024/01/17 10:43:10;;;;;;;;;;;1.20;99.90;;;;;;5079132;28;19961;-77
2024/01/17 10:45:37;;;;;;;;;;;1.30;99.90;;;;;;5099976;28;20404;-77
2024/01/17 10:48:05;;;;;;;;;;;1.30;99.90;;;;;;5082556;28;19924;-74
2024/01/17 10:50:31;;;;;;;;;;;1.40;99.90;;;;;;5066807;28;19967;-75
2024/01/17 10:53:08;;;;;;;;;;;1.20;99.90;;;;;;5080441;27;20070;-74
2024/01/17 10:55:37;;;;;;;;;;;1.30;99.90;;;;;;5064257;28;19927;-75
2024/01/17 10:58:09;;;;;;;;;;;1.30;99.90;;;;;;5098063;28;19932;-77
2024/01/17 11:00:40;;;;;;;;;;;1.10;99.90;;;;;;5102061;27;19928;-79
2024/01/17 11:03:08;;;;;;;;;;;1.20;99.90;;;;;;5082744;28;19928;-78
2024/01/17 11:05:39;;;;;;;;;;;2.10;99.90;;;;;;5081010;27;19972;-77
2024/01/17 11:08:05;;;;;;;;;;;1.10;99.90;;;;;;5104754;27;19970;-77
2024/01/17 11:10:30;;;;;;;;;;;1.10;99.90;;;;;;5101062;27;20351;-77
2024/01/17 11:12:56;;;;;;;;;;;1.10;99.90;;;;;;5086447;28;19928;-77
2024/01/17 11:15:22;;;;;;;;;;;1.00;99.90;;;;;;5067614;28;20050;-76
2024/01/17 11:17:48;;;;;;;;;;;1.50;99.90;;;;;;5086164;27;20363;-79
2024/01/17 11:20:15;;;;;;;;;;;1.10;99.90;;;;;;5084915;27;19935;-77
2024/01/17 11:22:41;;;;;;;;;;;0.90;99.90;;;;;;5067560;28;20375;-77
2024/01/17 11:25:14;;;;;;;;;;;1.30;99.90;;;;;;5085500;28;20302;-76
2024/01/17 11:27:49;;;;;;;;;;;0.90;99.90;;;;;;5101113;28;20265;-77
2024/01/17 11:30:24;;;;;;;;;;;0.90;99.90;;;;;;5084805;28;20018;-77
2024/01/17 11:32:53;;;;;;;;;;;0.90;99.90;;;;;;5067094;28;19932;-77
2024/01/17 11:35:39;;;;;;;;;;;0.90;99.90;;;;;;5082726;28;20358;-78
2024/01/17 11:38:10;;;;;;;;;;;1.00;99.90;;;;;;5086227;28;20002;-79
2024/01/17 11:40:40;;;;;;;;;;;1.20;99.90;;;;;;5081374;28;19932;-75
2024/01/17 11:43:06;;;;;;;;;;;0.90;99.90;;;;;;5086503;28;19935;-74
2024/01/17 11:45:33;;;;;;;;;;;1.00;99.90;;;;;;5083427;28;20400;-74
2024/01/17 11:48:11;;;;;;;;;;;2.20;99.90;;;;;;5084706;28;19954;-74
2024/01/17 11:50:37;;;;;;;;;;;0.90;99.90;;;;;;5083639;28;19934;-77
2024/01/17 11:53:03;;;;;;;;;;;1.00;99.90;;;;;;5082888;28;19970;-74
2024/01/17 11:55:32;;;;;;;;;;;1.00;99.90;;;;;;5099924;27;20380;-74
2024/01/17 11:58:00;;;;;;;;;;;1.00;99.90;;;;;;5083570;28;19933;-74
2024/01/17 12:00:27;;;;;;;;;;;1.90;99.90;;;;;;5099819;27;20000;-74
2024/01/17 12:02:54;;;;;;;;;;;1.20;99.90;;;;;;5067074;28;19968;-75
2024/01/17 12:05:20;;;;;;;;;;;1.10;99.90;;;;;;5084677;28;20022;-75
2024/01/17 12:07:49;;;;;;;;;;;1.20;99.90;;;;;;5085229;28;20010;-75
2024/01/17 12:10:15;;;;;;;;;;;1.20;99.90;;;;;;5062824;28;19951;-77
2024/01/17 12:12:44;;;;;;;;;;;1.20;99.90;;;;;;5064436;28;19950;-75
2024/01/17 12:15:10;;;;;;;;;;;1.20;99.90;;;;;;5084283;28;19974;-75
2024/01/17 12:17:40;;;;;;;;;;;1.30;99.90;;;;;;5085011;28;19927;-75
2024/01/17 12:20:09;;;;;;;;;;;1.30;99.90;;;;;;5083005;28;19981;-76
2024/01/17 12:22:35;;;;;;;;;;;1.30;99.90;;;;;;5082550;28;19963;-76
2024/01/17 12:25:01;;;;;;;;;;;1.50;99.90;;;;;;5064069;28;20203;-76
2024/01/17 12:27:30;;;;;;;;;;;2.40;99.90;;;;;;5085015;28;20374;-76
2024/01/17 12:30:00;;;;;;;;;;;1.40;99.90;;;;;;5101679;28;19962;-75
2024/01/17 12:32:26;;;;;;;;;;;1.40;99.90;;;;;;5101264;28;20556;-77
2024/01/17 12:34:52;;;;;;;;;;;2.30;99.90;;;;;;5066067;28;20413;-75
2024/01/17 12:37:18;;;;;;;;;;;1.40;99.90;;;;;;5067819;28;19938;-76
2024/01/17 12:39:43;;;;;;;;;;;1.40;99.90;;;;;;5099730;27;20630;-75
2024/01/17 12:42:10;;;;;;;;;;;1.40;99.90;;;;;;5084470;28;19980;-76
2024/01/17 12:44:36;;;;;;;;;;;1.50;99.90;;;;;;5084302;28;19928;-76
2024/01/17 12:47:01;;;;;;;;;;;1.50;99.90;;;;;;5081410;28;19931;-76
2024/01/17 12:49:30;;;;;;;;;;;1.50;99.90;;;;;;5062864;28;19978;-76
2024/01/17 12:51:56;;;;;;;;;;;1.80;99.90;;;;;;5081956;28;19931;-76
2024/01/17 12:54:22;;;;;;;;;;;1.50;99.90;;;;;;5081947;27;19992;-76
2024/01/17 12:56:48;;;;;;;;;;;1.70;99.90;;;;;;5082662;28;20318;-77
2024/01/17 12:59:17;;;;;;;;;;;1.60;99.90;;;;;;5085336;28;19990;-76
2024/01/17 13:01:42;;;;;;;;;;;1.60;99.90;;;;;;5081507;28;19928;-75
2024/01/17 13:04:08;;;;;;;;;;;1.70;99.90;;;;;;5083605;28;19928;-75
2024/01/17 13:06:47;;;;;;;;;;;2.00;99.90;;;;;;5080826;28;19963;-76
2024/01/17 13:09:15;;;;;;;;;;;1.70;99.90;;;;;;5099965;27;19932;-75
2024/01/17 13:11:46;;;;;;;;;;;3.00;99.90;;;;;;5081742;28;20693;-76
2024/01/17 13:14:23;;;;;;;;;;;3.50;99.90;;;;;;5079077;28;19982;-75
2024/01/17 13:16:49;;;;;;;;;;;1.80;99.90;;;;;;5079923;28;19938;-75
2024/01/17 13:19:15;;;;;;;;;;;1.90;99.90;;;;;;5083874;27;19928;-75
2024/01/17 13:21:41;;;;;;;;;;;2.30;99.90;;;;;;5082108;28;19977;-76
2024/01/17 13:24:08;;;;;;;;;;;2.00;99.90;;;;;;5098038;28;19928;-78
2024/01/17 13:26:37;;;;;;;;;;;1.80;99.90;;;;;;5080535;28;20023;-78
2024/01/17 13:29:04;;;;;;;;;;;1.90;99.90;;;;;;5081769;28;20409;-77
2024/01/17 13:31:30;;;;;;;;;;;3.30;99.90;;;;;;5082684;28;19923;-77
2024/01/17 13:33:58;;;;;;;;;;;2.00;99.90;;;;;;5081781;28;19959;-79
2024/01/17 13:36:24;;;;;;;;;;;1.80;99.90;;;;;;5084084;28;19932;-78
2024/01/17 13:38:51;;;;;;;;;;;2.10;99.90;;;;;;5104062;28;19920;-80
2024/01/17 13:41:18;;;;;;;;;;;1.80;99.90;;;;;;5091653;28;20014;-79
2024/01/17 13:43:44;;;;;;;;;;;1.80;99.90;;;;;;5072227;28;19940;-81
2024/01/17 13:46:10;;;;;;;;;;;1.80;99.90;;;;;;5100638;28;20859;-81
2024/01/17 13:48:37;;;;;;;;;;;1.90;99.90;;;;;;5083988;28;19947;-80
2024/01/17 13:51:02;;;;;;;;;;;2.10;99.90;;;;;;5084445;28;19927;-79
2024/01/17 13:53:28;;;;;;;;;;;1.70;99.90;;;;;;5083630;28;19935;-86
2024/01/17 13:55:56;;;;;;;;;;;2.30;99.90;;;;;;5052460;28;19920;-83
2024/01/17 13:58:22;;;;;;;;;;;2.00;99.90;;;;;;5096624;28;19935;-82
2024/01/17 14:00:48;;;;;;;;;;;1.80;99.90;;;;;;5067302;28;19949;-79
2024/01/17 14:03:14;;;;;;;;;;;1.70;99.90;;;;;;5084667;28;19928;-80
2024/01/17 14:05:39;;;;;;;;;;;1.70;99.90;;;;;;5082522;28;19928;-80
2024/01/17 14:08:06;;;;;;;;;;;1.80;99.90;;;;;;5103597;28;19970;-81
2024/01/17 14:10:32;;;;;;;;;;;1.90;99.90;;;;;;5084767;28;20092;-81
2024/01/17 14:12:59;;;;;;;;;;;2.00;99.90;;;;;;5084361;28;20039;-80
2024/01/17 14:15:25;;;;;;;;;;;1.70;99.90;;;;;;5083611;28;19987;-80
2024/01/17 14:17:51;;;;;;;;;;;1.80;99.90;;;;;;5084833;28;19920;-81
2024/01/17 14:20:16;;;;;;;;;;;1.80;99.90;;;;;;5088211;28;19938;-79
2024/01/17 14:22:51;;;;;;;;;;;1.80;99.90;;;;;;5087405;28;19969;-82
2024/01/17 14:25:17;;;;;;;;;;;1.80;99.90;;;;;;5105355;27;20507;-84
2024/01/17 14:27:49;;;;;;;;;;;2.10;99.90;;;;;;5088878;27;20457;-80